Back to Top

Language: 

My Weather Underground Personal Weather Station Historical Data with Graphs...

Delerius Weather Station Historical Data
Daily Summary for February 16, 2017 Units:  Both    English   Metric
« Previous Day
Next Day »
Daily Weekly Monthly Yearly Custom
  High: Low: Average:
Temperature: 51.9 °F /  11.1 °C 43.0 °F /  6.1 °C 46.7 °F /  8.2 °C
Dew Point: 44.1 °F /  6.7 °C 38.6 °F /  3.7 °C 41.9 °F /  5.5 °C
Humidity: 90 % 73 % 84 %
Wind Speed: 17.0 mph /  27.4 km/h - 8.3 mph /  13.4 km/h
Wind Gust: 24.0 mph /  38.6 km/h - -
Wind:- - West
Pressure: 30.29 in /  1025.6 hPa 30.23 in /  1023.6 hPa -
Precipitation: 0.00 in /  0 mm    
Historical Graphs
 
 
Tabular Data for February 16, 2017
Time Temperature Dew Point Pressure Wind Wind Speed Wind Gust Humidity Rainfall Rate (Hourly) solar Conditions
00:05 46.9 °F /  8.3 °C 44.1 °F /  6.7 °C 30.26 in /  1024.6 hPa SW 5.0 mph /  8 km/h 12.0 mph /  19.3 km/h 90 % 0.00 in /  0 mm 0 W/m2
00:15 47.2 °F /  8.4 °C 44.1 °F /  6.7 °C 30.26 in /  1024.6 hPa SW 9.0 mph /  14.5 km/h 9.0 mph /  14.5 km/h 89 % 0.00 in /  0 mm 0 W/m2
00:25 47.5 °F /  8.6 °C 43.8 °F /  6.6 °C 30.26 in /  1024.6 hPa West 10.0 mph /  16.1 km/h 12.0 mph /  19.3 km/h 87 % 0.00 in /  0 mm 0 W/m2
00:30 47.5 °F /  8.6 °C 43.8 °F /  6.6 °C 30.26 in /  1024.6 hPa WSW 10.0 mph /  16.1 km/h 14.0 mph /  22.5 km/h 87 % 0.00 in /  0 mm 0 W/m2
00:40 47.6 °F /  8.7 °C 43.9 °F /  6.6 °C 30.26 in /  1024.6 hPa WSW 11.0 mph /  17.7 km/h 11.0 mph /  17.7 km/h 87 % 0.00 in /  0 mm 0 W/m2
00:45 47.5 °F /  8.6 °C 43.8 °F /  6.6 °C 30.26 in /  1024.6 hPa WSW 8.0 mph /  12.9 km/h 11.0 mph /  17.7 km/h 87 % 0.00 in /  0 mm 0 W/m2
00:55 47.3 °F /  8.5 °C 43.9 °F /  6.6 °C 30.26 in /  1024.6 hPa West 8.0 mph /  12.9 km/h 16.0 mph /  25.7 km/h 88 % 0.00 in /  0 mm 0 W/m2
01:00 47.4 °F /  8.6 °C 44.0 °F /  6.7 °C 30.26 in /  1024.6 hPa West 10.0 mph /  16.1 km/h 10.0 mph /  16.1 km/h 88 % 0.00 in /  0 mm 0 W/m2
01:05 47.4 °F /  8.6 °C 43.7 °F /  6.5 °C 30.26 in /  1024.6 hPa WSW 10.0 mph /  16.1 km/h 12.0 mph /  19.3 km/h 87 % 0.00 in /  0 mm 0 W/m2
01:15 47.3 °F /  8.5 °C 43.6 °F /  6.4 °C 30.27 in /  1024.9 hPa WSW 9.0 mph /  14.5 km/h 13.0 mph /  20.9 km/h 87 % 0.00 in /  0 mm 0 W/m2
01:20 47.3 °F /  8.5 °C 43.6 °F /  6.4 °C 30.27 in /  1024.9 hPa West 9.0 mph /  14.5 km/h 12.0 mph /  19.3 km/h 87 % 0.00 in /  0 mm 0 W/m2
01:25 47.1 °F /  8.4 °C 43.7 °F /  6.5 °C 30.27 in /  1024.9 hPa West 8.0 mph /  12.9 km/h 14.0 mph /  22.5 km/h 88 % 0.00 in /  0 mm 0 W/m2
01:35 46.9 °F /  8.3 °C 43.5 °F /  6.4 °C 30.26 in /  1024.6 hPa West 9.0 mph /  14.5 km/h 12.0 mph /  19.3 km/h 88 % 0.00 in /  0 mm 0 W/m2
01:40 46.9 °F /  8.3 °C 43.5 °F /  6.4 °C 30.27 in /  1024.9 hPa West 9.0 mph /  14.5 km/h 12.0 mph /  19.3 km/h 88 % 0.00 in /  0 mm 0 W/m2
01:50 47.0 °F /  8.3 °C 43.3 °F /  6.3 °C 30.27 in /  1024.9 hPa WSW 9.0 mph /  14.5 km/h 12.0 mph /  19.3 km/h 87 % 0.00 in /  0 mm 0 W/m2
01:55 47.0 °F /  8.3 °C 43.3 °F /  6.3 °C 30.27 in /  1024.9 hPa WSW 8.0 mph /  12.9 km/h 12.0 mph /  19.3 km/h 87 % 0.00 in /  0 mm 0 W/m2
02:05 46.9 °F /  8.3 °C 42.9 °F /  6.1 °C 30.27 in /  1024.9 hPa WNW 8.0 mph /  12.9 km/h 12.0 mph /  19.3 km/h 86 % 0.00 in /  0 mm 0 W/m2
02:10 46.8 °F /  8.2 °C 42.8 °F /  6 °C 30.27 in /  1024.9 hPa SW 8.0 mph /  12.9 km/h 8.0 mph /  12.9 km/h 86 % 0.00 in /  0 mm 0 W/m2
02:15 46.8 °F /  8.2 °C 42.8 °F /  6 °C 30.27 in /  1024.9 hPa WNW 7.0 mph /  11.3 km/h 12.0 mph /  19.3 km/h 86 % 0.00 in /  0 mm 0 W/m2
02:20 46.6 °F /  8.1 °C 42.6 °F /  5.9 °C 30.27 in /  1024.9 hPa WNW 5.0 mph /  8 km/h 12.0 mph /  19.3 km/h 86 % 0.00 in /  0 mm 0 W/m2
02:35 46.3 °F /  7.9 °C 42.0 °F /  5.6 °C 30.27 in /  1024.9 hPa West 4.0 mph /  6.4 km/h 12.0 mph /  19.3 km/h 85 % 0.00 in /  0 mm 0 W/m2
02:40 46.2 °F /  7.9 °C 42.2 °F /  5.7 °C 30.28 in /  1025.3 hPa West 3.0 mph /  4.8 km/h 3.0 mph /  4.8 km/h 86 % 0.00 in /  0 mm 0 W/m2
02:45 46.1 °F /  7.8 °C 42.1 °F /  5.6 °C 30.27 in /  1024.9 hPa West 3.0 mph /  4.8 km/h 12.0 mph /  19.3 km/h 86 % 0.00 in /  0 mm 0 W/m2
02:55 45.9 °F /  7.7 °C 41.9 °F /  5.5 °C 30.27 in /  1024.9 hPa West 3.0 mph /  4.8 km/h 12.0 mph /  19.3 km/h 86 % 0.00 in /  0 mm 0 W/m2
03:00 45.9 °F /  7.7 °C 41.9 °F /  5.5 °C 30.27 in /  1024.9 hPa WSW 3.0 mph /  4.8 km/h 3.0 mph /  4.8 km/h 86 % 0.00 in /  0 mm 0 W/m2
03:05 45.7 °F /  7.6 °C 41.8 °F /  5.4 °C 30.27 in /  1024.9 hPa West 1.0 mph /  1.6 km/h 12.0 mph /  19.3 km/h 86 % 0.00 in /  0 mm 0 W/m2
03:15 45.1 °F /  7.3 °C 41.5 °F /  5.3 °C 30.27 in /  1024.9 hPa Calm   12.0 mph /  19.3 km/h 87 % 0.00 in /  0 mm 0 W/m2
03:20 45.0 °F /  7.2 °C 41.4 °F /  5.2 °C 30.27 in /  1024.9 hPa Calm   12.0 mph /  19.3 km/h 87 % 0.00 in /  0 mm 0 W/m2
03:25 44.8 °F /  7.1 °C 41.5 °F /  5.3 °C 30.27 in /  1024.9 hPa Calm   12.0 mph /  19.3 km/h 88 % 0.00 in /  0 mm 0 W/m2
03:30 44.6 °F /  7 °C 41.3 °F /  5.2 °C 30.27 in /  1024.9 hPa West 1.0 mph /  1.6 km/h 12.0 mph /  19.3 km/h 88 % 0.00 in /  0 mm 0 W/m2
03:35 44.6 °F /  7 °C 41.3 °F /  5.2 °C 30.27 in /  1024.9 hPa West 2.0 mph /  3.2 km/h 12.0 mph /  19.3 km/h 88 % 0.00 in /  0 mm 0 W/m2
03:45 44.6 °F /  7 °C 41.3 °F /  5.2 °C 30.27 in /  1024.9 hPa SW 3.0 mph /  4.8 km/h 12.0 mph /  19.3 km/h 88 % 0.00 in /  0 mm 0 W/m2
03:50 44.8 °F /  7.1 °C 41.5 °F /  5.3 °C 30.27 in /  1024.9 hPa SW 5.0 mph /  8 km/h 5.0 mph /  8 km/h 88 % 0.00 in /  0 mm 0 W/m2
04:00 45.2 °F /  7.3 °C 41.3 °F /  5.2 °C 30.28 in /  1025.3 hPa SSW 5.0 mph /  8 km/h 5.0 mph /  8 km/h 86 % 0.00 in /  0 mm 0 W/m2
04:10 45.3 °F /  7.4 °C 41.1 °F /  5.1 °C 30.27 in /  1024.9 hPa SW 4.0 mph /  6.4 km/h 4.0 mph /  6.4 km/h 85 % 0.00 in /  0 mm 0 W/m2
04:15 45.3 °F /  7.4 °C 41.1 °F /  5.1 °C 30.28 in /  1025.3 hPa SW 3.0 mph /  4.8 km/h 12.0 mph /  19.3 km/h 85 % 0.00 in /  0 mm 0 W/m2
04:20 45.2 °F /  7.3 °C 41.0 °F /  5 °C 30.28 in /  1025.3 hPa SSW 2.0 mph /  3.2 km/h 2.0 mph /  3.2 km/h 85 % 0.00 in /  0 mm 0 W/m2
04:30 44.9 °F /  7.2 °C 41.0 °F /  5 °C 30.28 in /  1025.3 hPa SSW 1.0 mph /  1.6 km/h 12.0 mph /  19.3 km/h 86 % 0.00 in /  0 mm 0 W/m2
04:35 44.8 °F /  7.1 °C 40.9 °F /  4.9 °C 30.27 in /  1024.9 hPa WSW 3.0 mph /  4.8 km/h 12.0 mph /  19.3 km/h 86 % 0.00 in /  0 mm 0 W/m2
04:40 44.7 °F /  7.1 °C 40.8 °F /  4.9 °C 30.27 in /  1024.9 hPa WSW 3.0 mph /  4.8 km/h 12.0 mph /  19.3 km/h 86 % 0.00 in /  0 mm 0 W/m2
04:45 44.7 °F /  7.1 °C 40.8 °F /  4.9 °C 30.28 in /  1025.3 hPa WSW 4.0 mph /  6.4 km/h 12.0 mph /  19.3 km/h 86 % 0.00 in /  0 mm 0 W/m2
04:55 44.8 °F /  7.1 °C 40.9 °F /  4.9 °C 30.28 in /  1025.3 hPa WSW 7.0 mph /  11.3 km/h 12.0 mph /  19.3 km/h 86 % 0.00 in /  0 mm 0 W/m2
05:00 44.7 °F /  7.1 °C 40.8 °F /  4.9 °C 30.27 in /  1024.9 hPa West 4.0 mph /  6.4 km/h 4.0 mph /  6.4 km/h 86 % 0.00 in /  0 mm 0 W/m2
05:10 44.4 °F /  6.9 °C 40.5 °F /  4.7 °C 30.27 in /  1024.9 hPa SSW 4.0 mph /  6.4 km/h 4.0 mph /  6.4 km/h 86 % 0.00 in /  0 mm 0 W/m2
05:15 44.3 °F /  6.8 °C 40.4 °F /  4.7 °C 30.28 in /  1025.3 hPa West 4.0 mph /  6.4 km/h 5.0 mph /  8 km/h 86 % 0.00 in /  0 mm 0 W/m2
05:20 44.2 °F /  6.8 °C 40.3 °F /  4.6 °C 30.28 in /  1025.3 hPa SW 2.0 mph /  3.2 km/h 12.0 mph /  19.3 km/h 86 % 0.00 in /  0 mm 0 W/m2
05:25 44.1 °F /  6.7 °C 40.2 °F /  4.6 °C 30.28 in /  1025.3 hPa SW 3.0 mph /  4.8 km/h 12.0 mph /  19.3 km/h 86 % 0.00 in /  0 mm 0 W/m2
05:35 44.0 °F /  6.7 °C 40.1 °F /  4.5 °C 30.27 in /  1024.9 hPa WSW 4.0 mph /  6.4 km/h 12.0 mph /  19.3 km/h 86 % 0.00 in /  0 mm 0 W/m2
05:40 43.9 °F /  6.6 °C 40.0 °F /  4.4 °C 30.27 in /  1024.9 hPa WSW 5.0 mph /  8 km/h 12.0 mph /  19.3 km/h 86 % 0.00 in /  0 mm 0 W/m2
05:45 43.8 °F /  6.6 °C 39.6 °F /  4.2 °C 30.27 in /  1024.9 hPa WNW 4.0 mph /  6.4 km/h 12.0 mph /  19.3 km/h 85 % 0.00 in /  0 mm 0 W/m2
05:50 43.9 °F /  6.6 °C 39.7 °F /  4.3 °C 30.28 in /  1025.3 hPa West 6.0 mph /  9.7 km/h 12.0 mph /  19.3 km/h 85 % 0.00 in /  0 mm 0 W/m2
06:00 43.9 °F /  6.6 °C 39.7 °F /  4.3 °C 30.27 in /  1024.9 hPa West 7.0 mph /  11.3 km/h 7.0 mph /  11.3 km/h 85 % 0.00 in /  0 mm 0 W/m2
06:05 43.8 °F /  6.6 °C 39.6 °F /  4.2 °C 30.28 in /  1025.3 hPa WNW 6.0 mph /  9.7 km/h 12.0 mph /  19.3 km/h 85 % 0.00 in /  0 mm 0 W/m2
06:10 43.7 °F /  6.5 °C 39.5 °F /  4.2 °C 30.28 in /  1025.3 hPa West 4.0 mph /  6.4 km/h 12.0 mph /  19.3 km/h 85 % 0.00 in /  0 mm 0 W/m2
06:15 43.6 °F /  6.4 °C 39.4 °F /  4.1 °C 30.28 in /  1025.3 hPa WSW 5.0 mph /  8 km/h 12.0 mph /  19.3 km/h 85 % 0.00 in /  0 mm 0 W/m2
06:25 43.5 °F /  6.4 °C 39.3 °F /  4.1 °C 30.28 in /  1025.3 hPa West 5.0 mph /  8 km/h 12.0 mph /  19.3 km/h 85 % 0.00 in /  0 mm 0 W/m2
06:30 43.5 °F /  6.4 °C 39.3 °F /  4.1 °C 30.28 in /  1025.3 hPa SW 5.0 mph /  8 km/h 5.0 mph /  8 km/h 85 % 0.00 in /  0 mm 0 W/m2
06:35 43.5 °F /  6.4 °C 39.3 °F /  4.1 °C 30.27 in /  1024.9 hPa SW 5.0 mph /  8 km/h 7.0 mph /  11.3 km/h 85 % 0.00 in /  0 mm 0 W/m2
06:45 43.7 °F /  6.5 °C 39.2 °F /  4 °C 30.27 in /  1024.9 hPa SSW 7.0 mph /  11.3 km/h 12.0 mph /  19.3 km/h 84 % 0.00 in /  0 mm 0 W/m2
06:50 43.8 °F /  6.6 °C 39.3 °F /  4.1 °C 30.27 in /  1024.9 hPa SW 8.0 mph /  12.9 km/h 8.0 mph /  12.9 km/h 84 % 0.00 in /  0 mm 0 W/m2
06:55 43.7 °F /  6.5 °C 39.2 °F /  4 °C 30.27 in /  1024.9 hPa WSW 6.0 mph /  9.7 km/h 12.0 mph /  19.3 km/h 84 % 0.00 in /  0 mm 0 W/m2
07:00 43.5 °F /  6.4 °C 39.0 °F /  3.9 °C 30.28 in /  1025.3 hPa SW 6.0 mph /  9.7 km/h 12.0 mph /  19.3 km/h 84 % 0.00 in /  0 mm 0 W/m2
07:10 43.4 °F /  6.3 °C 38.9 °F /  3.8 °C 30.28 in /  1025.3 hPa SW 6.0 mph /  9.7 km/h 12.0 mph /  19.3 km/h 84 % 0.00 in /  0 mm 0 W/m2
07:15 43.4 °F /  6.3 °C 38.9 °F /  3.8 °C 30.27 in /  1024.9 hPa SW 8.0 mph /  12.9 km/h 12.0 mph /  19.3 km/h 84 % 0.00 in /  0 mm 0 W/m2
07:25 43.2 °F /  6.2 °C 38.7 °F /  3.7 °C 30.28 in /  1025.3 hPa West 6.0 mph /  9.7 km/h 12.0 mph /  19.3 km/h 84 % 0.00 in /  0 mm 5 W/m2
07:30 43.1 °F /  6.2 °C 38.6 °F /  3.7 °C 30.27 in /  1024.9 hPa WSW 6.0 mph /  9.7 km/h 12.0 mph /  19.3 km/h 84 % 0.00 in /  0 mm 7 W/m2
07:40 43.0 °F /  6.1 °C 38.8 °F /  3.8 °C 30.28 in /  1025.3 hPa WSW 6.0 mph /  9.7 km/h 12.0 mph /  19.3 km/h 85 % 0.00 in /  0 mm 16 W/m2
07:45 43.1 °F /  6.2 °C 38.6 °F /  3.7 °C 30.28 in /  1025.3 hPa SW 7.0 mph /  11.3 km/h 12.0 mph /  19.3 km/h 84 % 0.00 in /  0 mm 25 W/m2
07:55 43.4 °F /  6.3 °C 38.9 °F /  3.8 °C 30.28 in /  1025.3 hPa WSW 7.0 mph /  11.3 km/h 12.0 mph /  19.3 km/h 84 % 0.00 in /  0 mm 58 W/m2
08:00 43.8 °F /  6.6 °C 39.3 °F /  4.1 °C 30.28 in /  1025.3 hPa SW 8.0 mph /  12.9 km/h 12.0 mph /  19.3 km/h 84 % 0.00 in /  0 mm 81 W/m2
08:10 44.4 °F /  6.9 °C 39.9 °F /  4.4 °C 30.28 in /  1025.3 hPa WNW 8.0 mph /  12.9 km/h 12.0 mph /  19.3 km/h 84 % 0.00 in /  0 mm 111 W/m2
08:15 44.6 °F /  7 °C 39.8 °F /  4.3 °C 30.29 in /  1025.6 hPa West 8.0 mph /  12.9 km/h 12.0 mph /  19.3 km/h 83 % 0.00 in /  0 mm 121 W/m2
08:20 45.0 °F /  7.2 °C 39.8 °F /  4.3 °C 30.29 in /  1025.6 hPa West 9.0 mph /  14.5 km/h 9.0 mph /  14.5 km/h 82 % 0.00 in /  0 mm 128 W/m2
08:30 45.5 °F /  7.5 °C 40.0 °F /  4.4 °C 30.29 in /  1025.6 hPa West 9.0 mph /  14.5 km/h 15.0 mph /  24.1 km/h 81 % 0.00 in /  0 mm 142 W/m2
08:35 45.7 °F /  7.6 °C 40.2 °F /  4.6 °C 30.29 in /  1025.6 hPa WSW 11.0 mph /  17.7 km/h 15.0 mph /  24.1 km/h 81 % 0.00 in /  0 mm 72 W/m2
08:40 45.8 °F /  7.7 °C 40.3 °F /  4.6 °C 30.29 in /  1025.6 hPa WSW 12.0 mph /  19.3 km/h 12.0 mph /  19.3 km/h 81 % 0.00 in /  0 mm 70 W/m2
08:50 46.0 °F /  7.8 °C 40.5 °F /  4.7 °C 30.29 in /  1025.6 hPa West 9.0 mph /  14.5 km/h 9.0 mph /  14.5 km/h 81 % 0.00 in /  0 mm 188 W/m2
08:55 46.1 °F /  7.8 °C 40.6 °F /  4.8 °C 30.29 in /  1025.6 hPa SW 9.0 mph /  14.5 km/h 12.0 mph /  19.3 km/h 81 % 0.00 in /  0 mm 213 W/m2
09:00 46.4 °F /  8 °C 41.2 °F /  5.1 °C 30.29 in /  1025.6 hPa WSW 9.0 mph /  14.5 km/h 12.0 mph /  19.3 km/h 82 % 0.00 in /  0 mm 193 W/m2
09:10 46.6 °F /  8.1 °C 41.1 °F /  5.1 °C 30.29 in /  1025.6 hPa West 11.0 mph /  17.7 km/h 12.0 mph /  19.3 km/h 81 % 0.00 in /  0 mm 232 W/m2
09:15 46.6 °F /  8.1 °C 41.1 °F /  5.1 °C 30.29 in /  1025.6 hPa WSW 11.0 mph /  17.7 km/h 14.0 mph /  22.5 km/h 81 % 0.00 in /  0 mm 229 W/m2
09:20 46.8 °F /  8.2 °C 41.3 °F /  5.2 °C 30.29 in /  1025.6 hPa West 10.0 mph /  16.1 km/h 10.0 mph /  16.1 km/h 81 % 0.00 in /  0 mm 264 W/m2
09:25 46.9 °F /  8.3 °C 41.4 °F /  5.2 °C 30.29 in /  1025.6 hPa WSW 9.0 mph /  14.5 km/h 15.0 mph /  24.1 km/h 81 % 0.00 in /  0 mm 121 W/m2
09:30 46.7 °F /  8.2 °C 40.9 °F /  4.9 °C 30.29 in /  1025.6 hPa WSW 10.0 mph /  16.1 km/h 13.0 mph /  20.9 km/h 80 % 0.00 in /  0 mm 118 W/m2
09:40 46.4 °F /  8 °C 40.6 °F /  4.8 °C 30.29 in /  1025.6 hPa West 10.0 mph /  16.1 km/h 12.0 mph /  19.3 km/h 80 % 0.00 in /  0 mm 60 W/m2
09:45 46.2 °F /  7.9 °C 40.4 °F /  4.7 °C 30.29 in /  1025.6 hPa WSW 11.0 mph /  17.7 km/h 12.0 mph /  19.3 km/h 80 % 0.00 in /  0 mm 56 W/m2
09:50 46.0 °F /  7.8 °C 40.5 °F /  4.7 °C 30.29 in /  1025.6 hPa SW 10.0 mph /  16.1 km/h 10.0 mph /  16.1 km/h 81 % 0.00 in /  0 mm 62 W/m2
10:00 45.8 °F /  7.7 °C 40.6 °F /  4.8 °C 30.29 in /  1025.6 hPa West 8.0 mph /  12.9 km/h 8.0 mph /  12.9 km/h 82 % 0.00 in /  0 mm 141 W/m2
10:05 46.0 °F /  7.8 °C 40.8 °F /  4.9 °C 30.29 in /  1025.6 hPa SW 8.0 mph /  12.9 km/h 11.0 mph /  17.7 km/h 82 % 0.00 in /  0 mm 195 W/m2
10:10 46.2 °F /  7.9 °C 40.7 °F /  4.8 °C 30.28 in /  1025.3 hPa SW 8.0 mph /  12.9 km/h 8.0 mph /  12.9 km/h 81 % 0.00 in /  0 mm 139 W/m2
10:20 46.5 °F /  8.1 °C 41.0 °F /  5 °C 30.28 in /  1025.3 hPa SW 8.0 mph /  12.9 km/h 12.0 mph /  19.3 km/h 81 % 0.00 in /  0 mm 107 W/m2
10:25 46.5 °F /  8.1 °C 41.0 °F /  5 °C 30.28 in /  1025.3 hPa WSW 9.0 mph /  14.5 km/h 12.0 mph /  19.3 km/h 81 % 0.00 in /  0 mm 95 W/m2
10:30 46.6 °F /  8.1 °C 41.1 °F /  5.1 °C 30.28 in /  1025.3 hPa West 9.0 mph /  14.5 km/h 9.0 mph /  14.5 km/h 81 % 0.00 in /  0 mm 77 W/m2
10:40 46.6 °F /  8.1 °C 41.1 °F /  5.1 °C 30.28 in /  1025.3 hPa WSW 8.0 mph /  12.9 km/h 12.0 mph /  19.3 km/h 81 % 0.00 in /  0 mm 74 W/m2
10:45 46.8 °F /  8.2 °C 41.3 °F /  5.2 °C 30.28 in /  1025.3 hPa West 8.0 mph /  12.9 km/h 14.0 mph /  22.5 km/h 81 % 0.00 in /  0 mm 76 W/m2
10:50 46.8 °F /  8.2 °C 41.3 °F /  5.2 °C 30.29 in /  1025.6 hPa SW 9.0 mph /  14.5 km/h 12.0 mph /  19.3 km/h 81 % 0.00 in /  0 mm 81 W/m2
11:00 47.0 °F /  8.3 °C 41.5 °F /  5.3 °C 30.28 in /  1025.3 hPa West 10.0 mph /  16.1 km/h 15.0 mph /  24.1 km/h 81 % 0.00 in /  0 mm 107 W/m2
11:10 47.2 °F /  8.4 °C 41.3 °F /  5.2 °C 30.28 in /  1025.3 hPa West 10.0 mph /  16.1 km/h 14.0 mph /  22.5 km/h 80 % 0.00 in /  0 mm 134 W/m2
11:15 47.3 °F /  8.5 °C 41.4 °F /  5.2 °C 30.28 in /  1025.3 hPa SW 11.0 mph /  17.7 km/h 14.0 mph /  22.5 km/h 80 % 0.00 in /  0 mm 127 W/m2
11:20 47.4 °F /  8.6 °C 41.5 °F /  5.3 °C 30.28 in /  1025.3 hPa SW 10.0 mph /  16.1 km/h 15.0 mph /  24.1 km/h 80 % 0.00 in /  0 mm 120 W/m2
11:25 47.4 °F /  8.6 °C 41.5 °F /  5.3 °C 30.28 in /  1025.3 hPa WSW 11.0 mph /  17.7 km/h 20.0 mph /  32.2 km/h 80 % 0.00 in /  0 mm 135 W/m2
11:35 47.6 °F /  8.7 °C 41.7 °F /  5.4 °C 30.28 in /  1025.3 hPa West 12.0 mph /  19.3 km/h 12.0 mph /  19.3 km/h 80 % 0.00 in /  0 mm 171 W/m2
11:40 47.8 °F /  8.8 °C 41.9 °F /  5.5 °C 30.28 in /  1025.3 hPa WSW 11.0 mph /  17.7 km/h 11.0 mph /  17.7 km/h 80 % 0.00 in /  0 mm 174 W/m2
11:50 48.1 °F /  8.9 °C 42.2 °F /  5.7 °C 30.27 in /  1024.9 hPa West 11.0 mph /  17.7 km/h 11.0 mph /  17.7 km/h 80 % 0.00 in /  0 mm 155 W/m2
11:55 48.3 °F /  9.1 °C 42.1 °F /  5.6 °C 30.27 in /  1024.9 hPa West 11.0 mph /  17.7 km/h 12.0 mph /  19.3 km/h 79 % 0.00 in /  0 mm 244 W/m2
12:00 48.6 °F /  9.2 °C 42.4 °F /  5.8 °C 30.27 in /  1024.9 hPa WNW 12.0 mph /  19.3 km/h 13.0 mph /  20.9 km/h 79 % 0.00 in /  0 mm 218 W/m2
12:10 49.3 °F /  9.6 °C 42.7 °F /  5.9 °C 30.26 in /  1024.6 hPa SW 12.0 mph /  19.3 km/h 12.0 mph /  19.3 km/h 78 % 0.00 in /  0 mm 253 W/m2
12:15 49.6 °F /  9.8 °C 42.7 °F /  5.9 °C 30.26 in /  1024.6 hPa WSW 13.0 mph /  20.9 km/h 13.0 mph /  20.9 km/h 77 % 0.00 in /  0 mm 294 W/m2
12:20 49.7 °F /  9.8 °C 42.8 °F /  6 °C 30.27 in /  1024.9 hPa WSW 14.0 mph /  22.5 km/h 14.0 mph /  22.5 km/h 77 % 0.00 in /  0 mm 221 W/m2
12:25 49.7 °F /  9.8 °C 42.8 °F /  6 °C 30.27 in /  1024.9 hPa WNW 15.0 mph /  24.1 km/h 15.0 mph /  24.1 km/h 77 % 0.00 in /  0 mm 304 W/m2
12:30 49.8 °F /  9.9 °C 42.9 °F /  6.1 °C 30.27 in /  1024.9 hPa WNW 15.0 mph /  24.1 km/h 15.0 mph /  24.1 km/h 77 % 0.00 in /  0 mm 422 W/m2
12:40 49.9 °F /  9.9 °C 43.0 °F /  6.1 °C 30.26 in /  1024.6 hPa West 15.0 mph /  24.1 km/h 15.0 mph /  24.1 km/h 77 % 0.00 in /  0 mm 234 W/m2
12:45 49.9 °F /  9.9 °C 43.0 °F /  6.1 °C 30.26 in /  1024.6 hPa SW 14.0 mph /  22.5 km/h 15.0 mph /  24.1 km/h 77 % 0.00 in /  0 mm 301 W/m2
12:50 49.9 °F /  9.9 °C 42.6 °F /  5.9 °C 30.26 in /  1024.6 hPa WSW 15.0 mph /  24.1 km/h 22.0 mph /  35.4 km/h 76 % 0.00 in /  0 mm 313 W/m2
12:55 50.1 °F /  10.1 °C 42.8 °F /  6 °C 30.26 in /  1024.6 hPa SW 16.0 mph /  25.7 km/h 22.0 mph /  35.4 km/h 76 % 0.00 in /  0 mm 404 W/m2
13:05 50.4 °F /  10.2 °C 43.1 °F /  6.2 °C 30.26 in /  1024.6 hPa WSW 14.0 mph /  22.5 km/h 15.0 mph /  24.1 km/h 76 % 0.00 in /  0 mm 415 W/m2
13:10 50.6 °F /  10.3 °C 43.3 °F /  6.3 °C 30.25 in /  1024.3 hPa West 15.0 mph /  24.1 km/h 16.0 mph /  25.7 km/h 76 % 0.00 in /  0 mm 482 W/m2
13:15 51.1 °F /  10.6 °C 43.8 °F /  6.6 °C 30.25 in /  1024.3 hPa West 15.0 mph /  24.1 km/h 16.0 mph /  25.7 km/h 76 % 0.00 in /  0 mm 468 W/m2
13:35 51.9 °F /  11.1 °C 43.9 °F /  6.6 °C 30.24 in /  1023.9 hPa SW 17.0 mph /  27.4 km/h 22.0 mph /  35.4 km/h 74 % 0.00 in /  0 mm 454 W/m2
13:45 51.7 °F /  10.9 °C 43.7 °F /  6.5 °C 30.24 in /  1023.9 hPa WSW 15.0 mph /  24.1 km/h 24.0 mph /  38.6 km/h 74 % 0.00 in /  0 mm 244 W/m2
13:50 51.2 °F /  10.7 °C 43.5 °F /  6.4 °C 30.23 in /  1023.6 hPa West 14.0 mph /  22.5 km/h 14.0 mph /  22.5 km/h 75 % 0.00 in /  0 mm 239 W/m2
13:55 50.9 °F /  10.5 °C 43.6 °F /  6.4 °C 30.24 in /  1023.9 hPa WSW 12.0 mph /  19.3 km/h 16.0 mph /  25.7 km/h 76 % 0.00 in /  0 mm 190 W/m2
14:05 50.5 °F /  10.3 °C 43.2 °F /  6.2 °C 30.24 in /  1023.9 hPa West 13.0 mph /  20.9 km/h 16.0 mph /  25.7 km/h 76 % 0.00 in /  0 mm 81 W/m2
14:10 50.3 °F /  10.2 °C 43.0 °F /  6.1 °C 30.24 in /  1023.9 hPa West 13.0 mph /  20.9 km/h 13.0 mph /  20.9 km/h 76 % 0.00 in /  0 mm 67 W/m2
14:20 50.0 °F /  10 °C 43.1 °F /  6.2 °C 30.24 in /  1023.9 hPa West 11.0 mph /  17.7 km/h 11.0 mph /  17.7 km/h 77 % 0.00 in /  0 mm 21 W/m2
14:25 49.8 °F /  9.9 °C 43.2 °F /  6.2 °C 30.24 in /  1023.9 hPa West 10.0 mph /  16.1 km/h 12.0 mph /  19.3 km/h 78 % 0.00 in /  0 mm 23 W/m2
14:30 49.7 °F /  9.8 °C 43.1 °F /  6.2 °C 30.24 in /  1023.9 hPa West 9.0 mph /  14.5 km/h 9.0 mph /  14.5 km/h 78 % 0.00 in /  0 mm 19 W/m2
14:40 49.6 °F /  9.8 °C 43.4 °F /  6.3 °C 30.24 in /  1023.9 hPa WSW 6.0 mph /  9.7 km/h 6.0 mph /  9.7 km/h 79 % 0.00 in /  0 mm 44 W/m2
14:45 49.5 °F /  9.7 °C 43.3 °F /  6.3 °C 30.24 in /  1023.9 hPa West 5.0 mph /  8 km/h 9.0 mph /  14.5 km/h 79 % 0.00 in /  0 mm 54 W/m2
14:50 49.5 °F /  9.7 °C 43.3 °F /  6.3 °C 30.24 in /  1023.9 hPa WSW 7.0 mph /  11.3 km/h 7.0 mph /  11.3 km/h 79 % 0.00 in /  0 mm 63 W/m2
15:00 49.4 °F /  9.7 °C 43.2 °F /  6.2 °C 30.24 in /  1023.9 hPa West 8.0 mph /  12.9 km/h 8.0 mph /  12.9 km/h 79 % 0.00 in /  0 mm 53 W/m2
15:05 49.2 °F /  9.6 °C 42.0 °F /  5.6 °C 30.24 in /  1023.9 hPa WNW 10.0 mph /  16.1 km/h 10.0 mph /  16.1 km/h 76 % 0.00 in /  0 mm 28 W/m2
15:10 49.2 °F /  9.6 °C 41.6 °F /  5.3 °C 30.24 in /  1023.9 hPa West 11.0 mph /  17.7 km/h 12.0 mph /  19.3 km/h 75 % 0.00 in /  0 mm 35 W/m2
15:15 49.1 °F /  9.5 °C 41.5 °F /  5.3 °C 30.24 in /  1023.9 hPa West 12.0 mph /  19.3 km/h 19.0 mph /  30.6 km/h 75 % 0.00 in /  0 mm 47 W/m2
15:25 49.2 °F /  9.6 °C 41.3 °F /  5.2 °C 30.24 in /  1023.9 hPa West 13.0 mph /  20.9 km/h 13.0 mph /  20.9 km/h 74 % 0.00 in /  0 mm 46 W/m2
15:30 49.2 °F /  9.6 °C 40.9 °F /  4.9 °C 30.24 in /  1023.9 hPa WNW 13.0 mph /  20.9 km/h 13.0 mph /  20.9 km/h 73 % 0.00 in /  0 mm 51 W/m2
15:40 49.1 °F /  9.5 °C 41.2 °F /  5.1 °C 30.25 in /  1024.3 hPa West 12.0 mph /  19.3 km/h 13.0 mph /  20.9 km/h 74 % 0.00 in /  0 mm 28 W/m2
15:45 49.1 °F /  9.5 °C 41.5 °F /  5.3 °C 30.25 in /  1024.3 hPa West 12.0 mph /  19.3 km/h 13.0 mph /  20.9 km/h 75 % 0.00 in /  0 mm 21 W/m2
15:50 49.0 °F /  9.4 °C 41.8 °F /  5.4 °C 30.25 in /  1024.3 hPa WNW 13.0 mph /  20.9 km/h 16.0 mph /  25.7 km/h 76 % 0.00 in /  0 mm 21 W/m2
15:55 48.8 °F /  9.3 °C 41.9 °F /  5.5 °C 30.25 in /  1024.3 hPa WNW 14.0 mph /  22.5 km/h 20.0 mph /  32.2 km/h 77 % 0.00 in /  0 mm 23 W/m2
16:05 48.5 °F /  9.2 °C 42.3 °F /  5.7 °C 30.24 in /  1023.9 hPa WSW 13.0 mph /  20.9 km/h 15.0 mph /  24.1 km/h 79 % 0.00 in /  0 mm 21 W/m2
16:10 48.3 °F /  9.1 °C 42.4 °F /  5.8 °C 30.25 in /  1024.3 hPa WSW 13.0 mph /  20.9 km/h 13.0 mph /  20.9 km/h 80 % 0.00 in /  0 mm 25 W/m2
16:15 48.1 °F /  8.9 °C 42.2 °F /  5.7 °C 30.25 in /  1024.3 hPa West 12.0 mph /  19.3 km/h 13.0 mph /  20.9 km/h 80 % 0.00 in /  0 mm 23 W/m2
16:20 47.9 °F /  8.8 °C 42.0 °F /  5.6 °C 30.25 in /  1024.3 hPa SW 11.0 mph /  17.7 km/h 11.0 mph /  17.7 km/h 80 % 0.00 in /  0 mm 19 W/m2
16:25 47.6 °F /  8.7 °C 41.7 °F /  5.4 °C 30.25 in /  1024.3 hPa West 11.0 mph /  17.7 km/h 12.0 mph /  19.3 km/h 80 % 0.00 in /  0 mm 16 W/m2
16:35 47.3 °F /  8.5 °C 41.8 °F /  5.4 °C 30.25 in /  1024.3 hPa WSW 7.0 mph /  11.3 km/h 12.0 mph /  19.3 km/h 81 % 0.00 in /  0 mm 14 W/m2
16:40 47.1 °F /  8.4 °C 41.6 °F /  5.3 °C 30.25 in /  1024.3 hPa WSW 6.0 mph /  9.7 km/h 12.0 mph /  19.3 km/h 81 % 0.00 in /  0 mm 14 W/m2
16:45 47.0 °F /  8.3 °C 41.5 °F /  5.3 °C 30.25 in /  1024.3 hPa West 7.0 mph /  11.3 km/h 12.0 mph /  19.3 km/h 81 % 0.00 in /  0 mm 11 W/m2
16:55 46.8 °F /  8.2 °C 41.6 °F /  5.3 °C 30.26 in /  1024.6 hPa West 6.0 mph /  9.7 km/h 12.0 mph /  19.3 km/h 82 % 0.00 in /  0 mm 7 W/m2
17:00 46.6 °F /  8.1 °C 41.4 °F /  5.2 °C 30.25 in /  1024.3 hPa West 5.0 mph /  8 km/h 5.0 mph /  8 km/h 82 % 0.00 in /  0 mm 7 W/m2
17:10 46.4 °F /  8 °C 41.2 °F /  5.1 °C 30.25 in /  1024.3 hPa West 5.0 mph /  8 km/h 5.0 mph /  8 km/h 82 % 0.00 in /  0 mm 5 W/m2
17:15 46.4 °F /  8 °C 41.2 °F /  5.1 °C 30.25 in /  1024.3 hPa WSW 6.0 mph /  9.7 km/h 6.0 mph /  9.7 km/h 82 % 0.00 in /  0 mm 0 W/m2
17:20 46.6 °F /  8.1 °C 41.4 °F /  5.2 °C 30.26 in /  1024.6 hPa West 6.0 mph /  9.7 km/h 6.0 mph /  9.7 km/h 82 % 0.00 in /  0 mm 0 W/m2
17:30 47.1 °F /  8.4 °C 41.9 °F /  5.5 °C 30.26 in /  1024.6 hPa WSW 11.0 mph /  17.7 km/h 11.0 mph /  17.7 km/h 82 % 0.00 in /  0 mm 0 W/m2
17:35 47.2 °F /  8.4 °C 42.0 °F /  5.6 °C 30.26 in /  1024.6 hPa West 10.0 mph /  16.1 km/h 12.0 mph /  19.3 km/h 82 % 0.00 in /  0 mm 0 W/m2
17:40 47.3 °F /  8.5 °C 41.8 °F /  5.4 °C 30.26 in /  1024.6 hPa West 11.0 mph /  17.7 km/h 11.0 mph /  17.7 km/h 81 % 0.00 in /  0 mm 0 W/m2
17:45 47.3 °F /  8.5 °C 41.8 °F /  5.4 °C 30.26 in /  1024.6 hPa WNW 11.0 mph /  17.7 km/h 12.0 mph /  19.3 km/h 81 % 0.00 in /  0 mm 0 W/m2
17:55 47.2 °F /  8.4 °C 41.7 °F /  5.4 °C 30.26 in /  1024.6 hPa WNW 8.0 mph /  12.9 km/h 12.0 mph /  19.3 km/h 81 % 0.00 in /  0 mm 0 W/m2
18:00 47.1 °F /  8.4 °C 41.6 °F /  5.3 °C 30.26 in /  1024.6 hPa WNW 8.0 mph /  12.9 km/h 12.0 mph /  19.3 km/h 81 % 0.00 in /  0 mm 0 W/m2
18:05 46.9 °F /  8.3 °C 41.4 °F /  5.2 °C 30.27 in /  1024.9 hPa West 9.0 mph /  14.5 km/h 14.0 mph /  22.5 km/h 81 % 0.00 in /  0 mm 0 W/m2
18:10 46.8 °F /  8.2 °C 41.3 °F /  5.2 °C 30.26 in /  1024.6 hPa West 10.0 mph /  16.1 km/h 12.0 mph /  19.3 km/h 81 % 0.00 in /  0 mm 0 W/m2
18:20 46.7 °F /  8.2 °C 41.2 °F /  5.1 °C 30.27 in /  1024.9 hPa West 10.0 mph /  16.1 km/h 18.0 mph /  29 km/h 81 % 0.00 in /  0 mm 0 W/m2
18:25 46.9 °F /  8.3 °C 41.4 °F /  5.2 °C 30.27 in /  1024.9 hPa West 12.0 mph /  19.3 km/h 18.0 mph /  29 km/h 81 % 0.00 in /  0 mm 0 W/m2
18:30 47.0 °F /  8.3 °C 41.5 °F /  5.3 °C 30.27 in /  1024.9 hPa WSW 14.0 mph /  22.5 km/h 20.0 mph /  32.2 km/h 81 % 0.00 in /  0 mm 0 W/m2
18:40 46.7 °F /  8.2 °C 41.8 °F /  5.4 °C 30.27 in /  1024.9 hPa West 13.0 mph /  20.9 km/h 18.0 mph /  29 km/h 83 % 0.00 in /  0 mm 0 W/m2
18:45 46.4 °F /  8 °C 41.8 °F /  5.4 °C 30.26 in /  1024.6 hPa WNW 14.0 mph /  22.5 km/h 18.0 mph /  29 km/h 84 % 0.00 in /  0 mm 0 W/m2
18:50 46.3 °F /  7.9 °C 42.0 °F /  5.6 °C 30.26 in /  1024.6 hPa WSW 13.0 mph /  20.9 km/h 13.0 mph /  20.9 km/h 85 % 0.00 in /  0 mm 0 W/m2
19:00 46.1 °F /  7.8 °C 42.1 °F /  5.6 °C 30.26 in /  1024.6 hPa WSW 11.0 mph /  17.7 km/h 12.0 mph /  19.3 km/h 86 % 0.00 in /  0 mm 0 W/m2
19:05 46.2 °F /  7.9 °C 42.2 °F /  5.7 °C 30.26 in /  1024.6 hPa WSW 10.0 mph /  16.1 km/h 12.0 mph /  19.3 km/h 86 % 0.00 in /  0 mm 0 W/m2
19:10 46.2 °F /  7.9 °C 42.2 °F /  5.7 °C 30.26 in /  1024.6 hPa West 9.0 mph /  14.5 km/h 12.0 mph /  19.3 km/h 86 % 0.00 in /  0 mm 0 W/m2
19:20 46.3 °F /  7.9 °C 42.0 °F /  5.6 °C 30.27 in /  1024.9 hPa West 9.0 mph /  14.5 km/h 9.0 mph /  14.5 km/h 85 % 0.00 in /  0 mm 0 W/m2
19:25 46.3 °F /  7.9 °C 42.0 °F /  5.6 °C 30.27 in /  1024.9 hPa WSW 7.0 mph /  11.3 km/h 10.0 mph /  16.1 km/h 85 % 0.00 in /  0 mm 0 W/m2
19:35 46.4 °F /  8 °C 42.1 °F /  5.6 °C 30.27 in /  1024.9 hPa SW 8.0 mph /  12.9 km/h 12.0 mph /  19.3 km/h 85 % 0.00 in /  0 mm 0 W/m2
19:45 46.4 °F /  8 °C 42.7 °F /  5.9 °C 30.27 in /  1024.9 hPa WSW 7.0 mph /  11.3 km/h 12.0 mph /  19.3 km/h 87 % 0.00 in /  0 mm 0 W/m2
19:50 46.3 °F /  7.9 °C 42.6 °F /  5.9 °C 30.27 in /  1024.9 hPa WSW 5.0 mph /  8 km/h 5.0 mph /  8 km/h 87 % 0.00 in /  0 mm 0 W/m2
19:55 46.3 °F /  7.9 °C 42.6 °F /  5.9 °C 30.27 in /  1024.9 hPa WSW 4.0 mph /  6.4 km/h 12.0 mph /  19.3 km/h 87 % 0.00 in /  0 mm 0 W/m2
20:00 46.2 °F /  7.9 °C 42.5 °F /  5.8 °C 30.27 in /  1024.9 hPa WSW 3.0 mph /  4.8 km/h 3.0 mph /  4.8 km/h 87 % 0.00 in /  0 mm 0 W/m2
20:10 46.2 °F /  7.9 °C 42.8 °F /  6 °C 30.27 in /  1024.9 hPa West 7.0 mph /  11.3 km/h 7.0 mph /  11.3 km/h 88 % 0.00 in /  0 mm 0 W/m2
20:15 46.2 °F /  7.9 °C 42.8 °F /  6 °C 30.27 in /  1024.9 hPa WSW 8.0 mph /  12.9 km/h 12.0 mph /  19.3 km/h 88 % 0.00 in /  0 mm 0 W/m2
20:25 46.1 °F /  7.8 °C 43.0 °F /  6.1 °C 30.26 in /  1024.6 hPa West 8.0 mph /  12.9 km/h 11.0 mph /  17.7 km/h 89 % 0.00 in /  0 mm 0 W/m2
20:30 46.1 °F /  7.8 °C 43.0 °F /  6.1 °C 30.26 in /  1024.6 hPa WNW 9.0 mph /  14.5 km/h 12.0 mph /  19.3 km/h 89 % 0.00 in /  0 mm 0 W/m2
20:35 46.1 °F /  7.8 °C 43.0 °F /  6.1 °C 30.26 in /  1024.6 hPa WNW 11.0 mph /  17.7 km/h 12.0 mph /  19.3 km/h 89 % 0.00 in /  0 mm 0 W/m2
20:45 46.1 °F /  7.8 °C 43.0 °F /  6.1 °C 30.27 in /  1024.9 hPa WSW 9.0 mph /  14.5 km/h 12.0 mph /  19.3 km/h 89 % 0.00 in /  0 mm 0 W/m2
20:50 46.1 °F /  7.8 °C 43.0 °F /  6.1 °C 30.27 in /  1024.9 hPa West 8.0 mph /  12.9 km/h 12.0 mph /  19.3 km/h 89 % 0.00 in /  0 mm 0 W/m2
20:55 46.2 °F /  7.9 °C 43.1 °F /  6.2 °C 30.26 in /  1024.6 hPa West 9.0 mph /  14.5 km/h 12.0 mph /  19.3 km/h 89 % 0.00 in /  0 mm 0 W/m2
21:05 46.3 °F /  7.9 °C 42.9 °F /  6.1 °C 30.27 in /  1024.9 hPa WNW 10.0 mph /  16.1 km/h 10.0 mph /  16.1 km/h 88 % 0.00 in /  0 mm 0 W/m2
21:10 46.4 °F /  8 °C 43.0 °F /  6.1 °C 30.27 in /  1024.9 hPa West 10.0 mph /  16.1 km/h 12.0 mph /  19.3 km/h 88 % 0.00 in /  0 mm 0 W/m2
21:15 46.5 °F /  8.1 °C 42.8 °F /  6 °C 30.27 in /  1024.9 hPa West 10.0 mph /  16.1 km/h 12.0 mph /  19.3 km/h 87 % 0.00 in /  0 mm 0 W/m2
21:20 46.5 °F /  8.1 °C 42.8 °F /  6 °C 30.27 in /  1024.9 hPa West 10.0 mph /  16.1 km/h 10.0 mph /  16.1 km/h 87 % 0.00 in /  0 mm 0 W/m2
21:30 46.6 °F /  8.1 °C 42.9 °F /  6.1 °C 30.26 in /  1024.6 hPa WNW 10.0 mph /  16.1 km/h 10.0 mph /  16.1 km/h 87 % 0.00 in /  0 mm 0 W/m2
21:40 46.7 °F /  8.2 °C 43.0 °F /  6.1 °C 30.26 in /  1024.6 hPa WNW 10.0 mph /  16.1 km/h 10.0 mph /  16.1 km/h 87 % 0.00 in /  0 mm 0 W/m2
21:45 46.8 °F /  8.2 °C 43.1 °F /  6.2 °C 30.27 in /  1024.9 hPa West 10.0 mph /  16.1 km/h 12.0 mph /  19.3 km/h 87 % 0.00 in /  0 mm 0 W/m2
21:50 46.8 °F /  8.2 °C 43.1 °F /  6.2 °C 30.27 in /  1024.9 hPa West 9.0 mph /  14.5 km/h 9.0 mph /  14.5 km/h 87 % 0.00 in /  0 mm 0 W/m2
21:55 46.8 °F /  8.2 °C 43.4 °F /  6.3 °C 30.27 in /  1024.9 hPa West 9.0 mph /  14.5 km/h 10.0 mph /  16.1 km/h 88 % 0.00 in /  0 mm 0 W/m2
22:05 46.7 °F /  8.2 °C 43.3 °F /  6.3 °C 30.28 in /  1025.3 hPa West 7.0 mph /  11.3 km/h 12.0 mph /  19.3 km/h 88 % 0.00 in /  0 mm 0 W/m2
22:10 46.6 °F /  8.1 °C 43.5 °F /  6.4 °C 30.28 in /  1025.3 hPa WNW 6.0 mph /  9.7 km/h 6.0 mph /  9.7 km/h 89 % 0.00 in /  0 mm 0 W/m2
22:15 46.6 °F /  8.1 °C 43.5 °F /  6.4 °C 30.28 in /  1025.3 hPa West 5.0 mph /  8 km/h 12.0 mph /  19.3 km/h 89 % 0.00 in /  0 mm 0 W/m2
22:25 46.6 °F /  8.1 °C 43.5 °F /  6.4 °C 30.28 in /  1025.3 hPa WSW 5.0 mph /  8 km/h 12.0 mph /  19.3 km/h 89 % 0.00 in /  0 mm 0 W/m2
22:35 46.6 °F /  8.1 °C 43.5 °F /  6.4 °C 30.28 in /  1025.3 hPa WNW 7.0 mph /  11.3 km/h 12.0 mph /  19.3 km/h 89 % 0.00 in /  0 mm 0 W/m2
22:40 46.6 °F /  8.1 °C 43.8 °F /  6.6 °C 30.28 in /  1025.3 hPa West 6.0 mph /  9.7 km/h 12.0 mph /  19.3 km/h 90 % 0.00 in /  0 mm 0 W/m2
22:45 46.6 °F /  8.1 °C 43.8 °F /  6.6 °C 30.28 in /  1025.3 hPa WNW 6.0 mph /  9.7 km/h 12.0 mph /  19.3 km/h 90 % 0.00 in /  0 mm 0 W/m2
22:55 46.5 °F /  8.1 °C 43.7 °F /  6.5 °C 30.28 in /  1025.3 hPa West 6.0 mph /  9.7 km/h 12.0 mph /  19.3 km/h 90 % 0.00 in /  0 mm 0 W/m2
23:00 46.5 °F /  8.1 °C 43.7 °F /  6.5 °C 30.28 in /  1025.3 hPa West 5.0 mph /  8 km/h 5.0 mph /  8 km/h 90 % 0.00 in /  0 mm 0 W/m2
23:05 46.5 °F /  8.1 °C 43.7 °F /  6.5 °C 30.28 in /  1025.3 hPa West 6.0 mph /  9.7 km/h 6.0 mph /  9.7 km/h 90 % 0.00 in /  0 mm 0 W/m2
23:15 46.5 °F /  8.1 °C 43.7 °F /  6.5 °C 30.28 in /  1025.3 hPa WNW 5.0 mph /  8 km/h 10.0 mph /  16.1 km/h 90 % 0.00 in /  0 mm 0 W/m2
23:20 46.5 °F /  8.1 °C 43.7 °F /  6.5 °C 30.28 in /  1025.3 hPa West 6.0 mph /  9.7 km/h 12.0 mph /  19.3 km/h 90 % 0.00 in /  0 mm 0 W/m2
23:25 46.5 °F /  8.1 °C 43.7 °F /  6.5 °C 30.28 in /  1025.3 hPa West 6.0 mph /  9.7 km/h 12.0 mph /  19.3 km/h 90 % 0.00 in /  0 mm 0 W/m2
23:30 46.6 °F /  8.1 °C 43.8 °F /  6.6 °C 30.27 in /  1024.9 hPa West 6.0 mph /  9.7 km/h 6.0 mph /  9.7 km/h 90 % 0.00 in /  0 mm 0 W/m2
23:40 46.5 °F /  8.1 °C 43.7 °F /  6.5 °C 30.27 in /  1024.9 hPa West 4.0 mph /  6.4 km/h 12.0 mph /  19.3 km/h 90 % 0.00 in /  0 mm 0 W/m2
23:45 46.5 °F /  8.1 °C 43.7 °F /  6.5 °C 30.27 in /  1024.9 hPa West 4.0 mph /  6.4 km/h 12.0 mph /  19.3 km/h 90 % 0.00 in /  0 mm 0 W/m2
23:50 46.5 °F /  8.1 °C 43.7 °F /  6.5 °C 30.28 in /  1025.3 hPa WSW 5.0 mph /  8 km/h 12.0 mph /  19.3 km/h 90 % 0.00 in /  0 mm 0 W/m2
23:55 46.5 °F /  8.1 °C 43.7 °F /  6.5 °C 30.28 in /  1025.3 hPa West 5.0 mph /  8 km/h 12.0 mph /  19.3 km/h 90 % 0.00 in /  0 mm 0 W/m2
Delerius-Weather
Compliments of Weather Underground - 1.75 mb

Data updates at regular intervals.